Accueil
METAR-TAF:

METAR-TAF

Aéroports :

Niévès, Antigua-et-Barbuda

latitude: 17-12N, longitude: 062-35W, altitude: 17 m

Observation

Le bulletin a été fait il y a 1 heure et 49 minutes, à 17:00 UTC
Vent 18 kt de est
Température 29°C
Humidité 58%
Pression 1018 hPa
Visibilité 10 km ou plus
Quelques nuages à une hauteur de 2200 ft

METAR: TKPN 291700Z 09018KT 9999 FEW022 29/20 Q1018

Heure: 14:49 (18:49 UTC)

Prévision

Le bulletin a été fait il y a 1 heure et 49 minutes, à 17:00 UTC
Prévision valable du 29 à 18 UTC au 30 à 18 UTC
Vent 13 kt de est/nord-est
Visibilité 10 km ou plus
Nuages épars à une hauteur de 2200 ft

TAF: TKPN 291700Z 2918/3018 06013KT 9999 SCT022

Observations et prévisions météorologiques de plus de 4000 aéroports (messages METAR et TAF).

Les stations disponibles sont représentées par des disques jaunes et rouges sur la carte.

Passer la souris dessus pour voir le nom de la station.

Cliquer dessus pour voir les observations et prévisions météorologiques.

Pour changer de carte: cliquez sur les boutons verts avec une croix noire pour zoomer, sur le bouton vert avec un tiret pour effectuer un zoom arrière, ou sur les flèches vertes pour les cartes adjacentes.


METAR-TAF: